sensor_id;sensor_type;location;lat;lon;timestamp;temperature;humidity
42421;DHT22;28063;48.140;11.588;2023-03-26T00:00:04;8.10;88.70
42421;DHT22;28063;48.140;11.588;2023-03-26T00:02:33;8.10;88.40
42421;DHT22;28063;48.140;11.588;2023-03-26T00:04:59;8.10;88.00
42421;DHT22;28063;48.140;11.588;2023-03-26T00:07:24;8.20;87.90
42421;DHT22;28063;48.140;11.588;2023-03-26T00:09:52;8.20;88.30
42421;DHT22;28063;48.140;11.588;2023-03-26T00:12:18;8.20;87.50
42421;DHT22;28063;48.140;11.588;2023-03-26T00:14:44;8.20;87.40
42421;DHT22;28063;48.140;11.588;2023-03-26T00:17:10;8.20;87.40
42421;DHT22;28063;48.140;11.588;2023-03-26T00:19:36;8.10;87.50
42421;DHT22;28063;48.140;11.588;2023-03-26T00:22:02;8.00;87.60
42421;DHT22;28063;48.140;11.588;2023-03-26T00:24:28;7.90;87.90
42421;DHT22;28063;48.140;11.588;2023-03-26T00:26:54;7.80;88.10
42421;DHT22;28063;48.140;11.588;2023-03-26T00:29:21;7.80;88.50
42421;DHT22;28063;48.140;11.588;2023-03-26T00:31:52;7.70;88.70
42421;DHT22;28063;48.140;11.588;2023-03-26T00:34:17;7.60;89.00
42421;DHT22;28063;48.140;11.588;2023-03-26T00:36:43;7.60;89.30
42421;DHT22;28063;48.140;11.588;2023-03-26T00:39:11;7.60;89.40
42421;DHT22;28063;48.140;11.588;2023-03-26T00:41:38;7.50;89.50
42421;DHT22;28063;48.140;11.588;2023-03-26T00:44:08;7.50;89.70
42421;DHT22;28063;48.140;11.588;2023-03-26T00:46:34;7.60;89.90
42421;DHT22;28063;48.140;11.588;2023-03-26T00:49:01;7.50;89.90
42421;DHT22;28063;48.140;11.588;2023-03-26T00:51:28;7.50;90.00
42421;DHT22;28063;48.140;11.588;2023-03-26T00:53:55;7.50;90.00
42421;DHT22;28063;48.140;11.588;2023-03-26T00:56:21;7.50;90.00
42421;DHT22;28063;48.140;11.588;2023-03-26T00:58:47;7.50;90.10
42421;DHT22;28063;48.140;11.588;2023-03-26T01:01:18;7.50;90.20
42421;DHT22;28063;48.140;11.588;2023-03-26T01:03:45;7.50;90.10
42421;DHT22;28063;48.140;11.588;2023-03-26T01:06:16;7.50;90.10
42421;DHT22;28063;48.140;11.588;2023-03-26T01:08:46;7.50;90.10
42421;DHT22;28063;48.140;11.588;2023-03-26T01:11:33;7.50;90.00
42421;DHT22;28063;48.140;11.588;2023-03-26T01:14:04;7.60;90.10
42421;DHT22;28063;48.140;11.588;2023-03-26T01:16:42;7.50;90.00
42421;DHT22;28063;48.140;11.588;2023-03-26T01:21:58;7.50;90.00
42421;DHT22;28063;48.140;11.588;2023-03-26T01:24:25;7.50;90.10
42421;DHT22;28063;48.140;11.588;2023-03-26T01:38:01;7.30;90.50
42421;DHT22;28063;48.140;11.588;2023-03-26T01:40:46;7.30;90.60
42421;DHT22;28063;48.140;11.588;2023-03-26T01:46:01;7.30;90.80
42421;DHT22;28063;48.140;11.588;2023-03-26T01:48:36;7.30;90.90
42421;DHT22;28063;48.140;11.588;2023-03-26T01:51:03;7.30;90.90
42421;DHT22;28063;48.140;11.588;2023-03-26T01:53:30;7.20;90.90
42421;DHT22;28063;48.140;11.588;2023-03-26T01:59:06;7.20;91.10
42421;DHT22;28063;48.140;11.588;2023-03-26T02:01:58;7.20;91.10
42421;DHT22;28063;48.140;11.588;2023-03-26T02:07:24;7.20;91.20
42421;DHT22;28063;48.140;11.588;2023-03-26T02:09:58;7.10;91.40
42421;DHT22;28063;48.140;11.588;2023-03-26T02:12:27;7.10;91.40
42421;DHT22;28063;48.140;11.588;2023-03-26T02:14:53;7.10;91.50
42421;DHT22;28063;48.140;11.588;2023-03-26T02:17:19;7.10;91.80
42421;DHT22;28063;48.140;11.588;2023-03-26T02:19:49;7.00;91.70
42421;DHT22;28063;48.140;11.588;2023-03-26T02:22:16;7.10;91.70
42421;DHT22;28063;48.140;11.588;2023-03-26T02:24:43;7.10;91.70
42421;DHT22;28063;48.140;11.588;2023-03-26T02:27:09;7.10;91.70
42421;DHT22;28063;48.140;11.588;2023-03-26T02:29:37;7.10;91.70
42421;DHT22;28063;48.140;11.588;2023-03-26T02:32:05;7.20;91.70
42421;DHT22;28063;48.140;11.588;2023-03-26T02:34:31;7.20;91.70
42421;DHT22;28063;48.140;11.588;2023-03-26T02:36:57;7.20;91.60
42421;DHT22;28063;48.140;11.588;2023-03-26T02:39:23;7.20;91.60
42421;DHT22;28063;48.140;11.588;2023-03-26T02:41:52;7.20;91.60
42421;DHT22;28063;48.140;11.588;2023-03-26T02:44:18;7.20;91.60
42421;DHT22;28063;48.140;11.588;2023-03-26T02:46:43;7.30;91.60
42421;DHT22;28063;48.140;11.588;2023-03-26T02:49:09;7.30;91.60
42421;DHT22;28063;48.140;11.588;2023-03-26T02:51:35;7.30;91.60
42421;DHT22;28063;48.140;11.588;2023-03-26T02:54:02;7.30;91.60
42421;DHT22;28063;48.140;11.588;2023-03-26T02:56:28;7.30;91.60
42421;DHT22;28063;48.140;11.588;2023-03-26T02:58:54;7.30;91.60
42421;DHT22;28063;48.140;11.588;2023-03-26T03:01:20;7.30;91.60
42421;DHT22;28063;48.140;11.588;2023-03-26T03:03:47;7.30;91.60
42421;DHT22;28063;48.140;11.588;2023-03-26T03:06:16;7.30;91.60
42421;DHT22;28063;48.140;11.588;2023-03-26T03:08:44;7.30;91.60
42421;DHT22;28063;48.140;11.588;2023-03-26T03:11:15;7.30;91.60
42421;DHT22;28063;48.140;11.588;2023-03-26T03:13:41;7.30;91.60
42421;DHT22;28063;48.140;11.588;2023-03-26T03:16:08;7.30;91.60
42421;DHT22;28063;48.140;11.588;2023-03-26T03:18:37;7.30;91.70
42421;DHT22;28063;48.140;11.588;2023-03-26T03:21:04;7.30;91.70
42421;DHT22;28063;48.140;11.588;2023-03-26T03:23:30;7.30;91.80
42421;DHT22;28063;48.140;11.588;2023-03-26T03:25:56;7.30;91.80
42421;DHT22;28063;48.140;11.588;2023-03-26T03:28:23;7.20;91.80
42421;DHT22;28063;48.140;11.588;2023-03-26T03:30:50;7.20;91.90
42421;DHT22;28063;48.140;11.588;2023-03-26T03:33:21;7.20;92.00
42421;DHT22;28063;48.140;11.588;2023-03-26T03:35:48;7.20;91.90
42421;DHT22;28063;48.140;11.588;2023-03-26T03:38:15;7.20;91.90
42421;DHT22;28063;48.140;11.588;2023-03-26T03:40:41;7.20;92.00
42421;DHT22;28063;48.140;11.588;2023-03-26T03:43:07;7.20;92.00
42421;DHT22;28063;48.140;11.588;2023-03-26T03:45:33;7.20;92.00
42421;DHT22;28063;48.140;11.588;2023-03-26T03:47:58;7.20;92.00
42421;DHT22;28063;48.140;11.588;2023-03-26T03:50:24;7.20;92.00
42421;DHT22;28063;48.140;11.588;2023-03-26T03:52:51;7.30;92.00
42421;DHT22;28063;48.140;11.588;2023-03-26T03:55:17;7.30;92.10
42421;DHT22;28063;48.140;11.588;2023-03-26T03:57:43;7.30;92.10
42421;DHT22;28063;48.140;11.588;2023-03-26T04:00:09;7.30;92.00
42421;DHT22;28063;48.140;11.588;2023-03-26T04:02:36;7.40;92.00
42421;DHT22;28063;48.140;11.588;2023-03-26T04:05:03;7.40;92.00
42421;DHT22;28063;48.140;11.588;2023-03-26T04:07:31;7.40;92.00
42421;DHT22;28063;48.140;11.588;2023-03-26T04:09:59;7.50;92.00
42421;DHT22;28063;48.140;11.588;2023-03-26T04:12:27;7.50;91.90
42421;DHT22;28063;48.140;11.588;2023-03-26T04:14:53;7.50;92.10
42421;DHT22;28063;48.140;11.588;2023-03-26T04:17:19;7.50;91.80
42421;DHT22;28063;48.140;11.588;2023-03-26T04:19:49;7.50;91.90
42421;DHT22;28063;48.140;11.588;2023-03-26T04:22:15;7.40;91.90
42421;DHT22;28063;48.140;11.588;2023-03-26T04:24:44;7.40;91.90
42421;DHT22;28063;48.140;11.588;2023-03-26T04:27:18;7.40;92.00
42421;DHT22;28063;48.140;11.588;2023-03-26T04:29:46;7.30;92.40
42421;DHT22;28063;48.140;11.588;2023-03-26T04:32:25;7.30;92.20
42421;DHT22;28063;48.140;11.588;2023-03-26T04:34:56;7.30;92.30
42421;DHT22;28063;48.140;11.588;2023-03-26T04:37:31;7.30;92.40
42421;DHT22;28063;48.140;11.588;2023-03-26T04:40:03;7.30;92.50
42421;DHT22;28063;48.140;11.588;2023-03-26T04:42:35;7.20;92.50
42421;DHT22;28063;48.140;11.588;2023-03-26T04:45:05;7.30;92.60
42421;DHT22;28063;48.140;11.588;2023-03-26T04:47:31;7.30;92.70
42421;DHT22;28063;48.140;11.588;2023-03-26T04:50:04;7.40;92.80
42421;DHT22;28063;48.140;11.588;2023-03-26T04:52:31;7.40;92.70
42421;DHT22;28063;48.140;11.588;2023-03-26T04:54:57;7.50;92.60
42421;DHT22;28063;48.140;11.588;2023-03-26T04:57:26;7.50;92.60
42421;DHT22;28063;48.140;11.588;2023-03-26T04:59:53;7.60;92.50
42421;DHT22;28063;48.140;11.588;2023-03-26T05:02:19;7.60;92.40
42421;DHT22;28063;48.140;11.588;2023-03-26T05:04:45;7.60;92.30
42421;DHT22;28063;48.140;11.588;2023-03-26T05:07:14;7.70;92.30
42421;DHT22;28063;48.140;11.588;2023-03-26T05:09:41;7.70;92.20
42421;DHT22;28063;48.140;11.588;2023-03-26T05:12:07;7.70;92.10
42421;DHT22;28063;48.140;11.588;2023-03-26T05:14:32;7.80;92.00
42421;DHT22;28063;48.140;11.588;2023-03-26T05:16:59;7.80;91.90
42421;DHT22;28063;48.140;11.588;2023-03-26T05:19:25;7.80;91.90
42421;DHT22;28063;48.140;11.588;2023-03-26T05:21:51;7.80;91.80
42421;DHT22;28063;48.140;11.588;2023-03-26T05:24:17;7.80;91.80
42421;DHT22;28063;48.140;11.588;2023-03-26T05:26:44;7.80;91.80
42421;DHT22;28063;48.140;11.588;2023-03-26T05:29:16;7.90;91.80
42421;DHT22;28063;48.140;11.588;2023-03-26T05:31:42;7.90;91.70
42421;DHT22;28063;48.140;11.588;2023-03-26T05:34:09;7.90;91.70
42421;DHT22;28063;48.140;11.588;2023-03-26T05:36:34;8.00;91.70
42421;DHT22;28063;48.140;11.588;2023-03-26T05:39:01;8.00;91.60
42421;DHT22;28063;48.140;11.588;2023-03-26T05:41:27;8.00;91.50
42421;DHT22;28063;48.140;11.588;2023-03-26T05:43:53;8.00;91.40
42421;DHT22;28063;48.140;11.588;2023-03-26T05:46:18;8.10;91.40
42421;DHT22;28063;48.140;11.588;2023-03-26T05:48:46;8.20;91.30
42421;DHT22;28063;48.140;11.588;2023-03-26T05:51:12;8.20;91.20
42421;DHT22;28063;48.140;11.588;2023-03-26T05:53:40;8.20;91.10
42421;DHT22;28063;48.140;11.588;2023-03-26T05:56:06;8.30;91.00
42421;DHT22;28063;48.140;11.588;2023-03-26T05:58:33;8.30;91.00
42421;DHT22;28063;48.140;11.588;2023-03-26T06:01:05;8.30;90.90
42421;DHT22;28063;48.140;11.588;2023-03-26T06:03:33;8.40;91.10
42421;DHT22;28063;48.140;11.588;2023-03-26T06:05:59;8.40;90.80
42421;DHT22;28063;48.140;11.588;2023-03-26T06:08:25;8.40;90.60
42421;DHT22;28063;48.140;11.588;2023-03-26T06:10:57;8.40;90.50
42421;DHT22;28063;48.140;11.588;2023-03-26T06:13:23;8.50;90.50
42421;DHT22;28063;48.140;11.588;2023-03-26T06:15:49;8.50;90.40
42421;DHT22;28063;48.140;11.588;2023-03-26T06:18:15;8.50;90.40
42421;DHT22;28063;48.140;11.588;2023-03-26T06:20:42;8.60;90.30
42421;DHT22;28063;48.140;11.588;2023-03-26T06:23:08;8.60;90.20
42421;DHT22;28063;48.140;11.588;2023-03-26T06:25:35;8.70;90.10
42421;DHT22;28063;48.140;11.588;2023-03-26T06:28:00;8.80;89.70
42421;DHT22;28063;48.140;11.588;2023-03-26T06:30:26;8.90;89.50
42421;DHT22;28063;48.140;11.588;2023-03-26T06:32:52;9.00;89.00
42421;DHT22;28063;48.140;11.588;2023-03-26T06:35:17;9.00;88.50
42421;DHT22;28063;48.140;11.588;2023-03-26T06:37:43;9.10;88.30
42421;DHT22;28063;48.140;11.588;2023-03-26T06:40:09;9.10;87.90
42421;DHT22;28063;48.140;11.588;2023-03-26T06:42:35;9.20;87.70
42421;DHT22;28063;48.140;11.588;2023-03-26T06:45:01;9.20;87.50
42421;DHT22;28063;48.140;11.588;2023-03-26T06:47:26;9.30;87.30
42421;DHT22;28063;48.140;11.588;2023-03-26T06:49:52;9.40;87.30
42421;DHT22;28063;48.140;11.588;2023-03-26T06:52:18;9.50;86.80
42421;DHT22;28063;48.140;11.588;2023-03-26T06:54:43;9.60;86.40
42421;DHT22;28063;48.140;11.588;2023-03-26T06:57:09;9.60;85.90
42421;DHT22;28063;48.140;11.588;2023-03-26T06:59:34;9.70;85.90
42421;DHT22;28063;48.140;11.588;2023-03-26T07:02:00;9.70;85.70
42421;DHT22;28063;48.140;11.588;2023-03-26T07:04:26;9.70;85.00
42421;DHT22;28063;48.140;11.588;2023-03-26T07:06:51;9.80;84.70
42421;DHT22;28063;48.140;11.588;2023-03-26T07:09:17;9.80;84.30
42421;DHT22;28063;48.140;11.588;2023-03-26T07:11:43;9.80;84.00
42421;DHT22;28063;48.140;11.588;2023-03-26T07:14:08;9.80;84.00
42421;DHT22;28063;48.140;11.588;2023-03-26T07:16:34;9.80;83.80
42421;DHT22;28063;48.140;11.588;2023-03-26T07:19:00;9.80;83.90
42421;DHT22;28063;48.140;11.588;2023-03-26T07:21:26;9.70;84.10
42421;DHT22;28063;48.140;11.588;2023-03-26T07:23:52;9.80;84.80
42421;DHT22;28063;48.140;11.588;2023-03-26T07:29:17;9.70;85.90
42421;DHT22;28063;48.140;11.588;2023-03-26T07:31:58;9.70;86.60
42421;DHT22;28063;48.140;11.588;2023-03-26T07:34:33;9.70;87.40
42421;DHT22;28063;48.140;11.588;2023-03-26T07:45:30;9.50;89.80
42421;DHT22;28063;48.140;11.588;2023-03-26T07:47:59;9.40;90.20
42421;DHT22;28063;48.140;11.588;2023-03-26T07:50:25;9.30;90.40
42421;DHT22;28063;48.140;11.588;2023-03-26T07:52:51;9.10;90.70
42421;DHT22;28063;48.140;11.588;2023-03-26T07:55:17;9.10;91.00
42421;DHT22;28063;48.140;11.588;2023-03-26T07:58:07;9.00;91.30
42421;DHT22;28063;48.140;11.588;2023-03-26T08:00:40;9.10;91.70
42421;DHT22;28063;48.140;11.588;2023-03-26T08:05:52;9.30;91.70
42421;DHT22;28063;48.140;11.588;2023-03-26T08:08:47;9.40;91.40
42421;DHT22;28063;48.140;11.588;2023-03-26T08:11:32;9.50;91.60
42421;DHT22;28063;48.140;11.588;2023-03-26T08:17:21;9.80;91.40
42421;DHT22;28063;48.140;11.588;2023-03-26T08:22:37;9.90;90.80
42421;DHT22;28063;48.140;11.588;2023-03-26T08:25:27;10.00;90.60
42421;DHT22;28063;48.140;11.588;2023-03-26T08:30:47;10.10;90.30
42421;DHT22;28063;48.140;11.588;2023-03-26T08:33:18;10.00;90.20
42421;DHT22;28063;48.140;11.588;2023-03-26T08:35:45;10.10;90.00
42421;DHT22;28063;48.140;11.588;2023-03-26T08:38:14;10.00;89.80
42421;DHT22;28063;48.140;11.588;2023-03-26T08:44:21;10.00;90.30
42421;DHT22;28063;48.140;11.588;2023-03-26T08:47:09;10.20;90.00
42421;DHT22;28063;48.140;11.588;2023-03-26T08:53:06;10.50;88.80
42421;DHT22;28063;48.140;11.588;2023-03-26T09:04:29;10.70;87.20
42421;DHT22;28063;48.140;11.588;2023-03-26T09:12:25;10.60;87.40
42421;DHT22;28063;48.140;11.588;2023-03-26T09:23:31;10.00;88.20
42421;DHT22;28063;48.140;11.588;2023-03-26T09:26:18;10.00;88.90
42421;DHT22;28063;48.140;11.588;2023-03-26T09:32:08;9.90;89.70
42421;DHT22;28063;48.140;11.588;2023-03-26T09:37:40;10.00;90.20
42421;DHT22;28063;48.140;11.588;2023-03-26T09:40:15;10.00;90.20
42421;DHT22;28063;48.140;11.588;2023-03-26T09:42:43;10.00;90.20
42421;DHT22;28063;48.140;11.588;2023-03-26T09:51:22;9.80;90.60
42421;DHT22;28063;48.140;11.588;2023-03-26T09:59:53;9.60;91.70
42421;DHT22;28063;48.140;11.588;2023-03-26T10:21:39;10.20;92.30
42421;DHT22;28063;48.140;11.588;2023-03-26T10:24:18;10.00;92.40
42421;DHT22;28063;48.140;11.588;2023-03-26T10:30:24;9.70;92.60
42421;DHT22;28063;48.140;11.588;2023-03-26T10:33:18;9.70;92.90
42421;DHT22;28063;48.140;11.588;2023-03-26T10:52:46;9.50;93.90
42421;DHT22;28063;48.140;11.588;2023-03-26T10:55:17;9.50;94.20
42421;DHT22;28063;48.140;11.588;2023-03-26T10:57:55;9.40;94.50
42421;DHT22;28063;48.140;11.588;2023-03-26T11:00:24;9.30;95.10
42421;DHT22;28063;48.140;11.588;2023-03-26T11:05:57;9.30;96.20
42421;DHT22;28063;48.140;11.588;2023-03-26T11:11:31;9.50;96.20
42421;DHT22;28063;48.140;11.588;2023-03-26T11:14:17;9.50;96.20
42421;DHT22;28063;48.140;11.588;2023-03-26T11:27:54;10.00;95.60
42421;DHT22;28063;48.140;11.588;2023-03-26T11:33:20;10.30;95.00
42421;DHT22;28063;48.140;11.588;2023-03-26T11:35:49;10.30;94.80
42421;DHT22;28063;48.140;11.588;2023-03-26T11:38:20;10.30;94.90
42421;DHT22;28063;48.140;11.588;2023-03-26T11:40:51;10.40;94.80
42421;DHT22;28063;48.140;11.588;2023-03-26T11:43:23;10.50;94.10
42421;DHT22;28063;48.140;11.588;2023-03-26T11:45:51;10.40;93.90
42421;DHT22;28063;48.140;11.588;2023-03-26T11:48:31;10.30;93.30
42421;DHT22;28063;48.140;11.588;2023-03-26T11:51:05;10.00;93.20
42421;DHT22;28063;48.140;11.588;2023-03-26T11:53:33;9.70;93.80
42421;DHT22;28063;48.140;11.588;2023-03-26T11:56:04;9.50;94.60
42421;DHT22;28063;48.140;11.588;2023-03-26T12:02:13;9.50;95.80
42421;DHT22;28063;48.140;11.588;2023-03-26T12:04:41;9.80;95.70
42421;DHT22;28063;48.140;11.588;2023-03-26T12:07:18;10.00;95.80
42421;DHT22;28063;48.140;11.588;2023-03-26T12:09:57;10.20;95.10
42421;DHT22;28063;48.140;11.588;2023-03-26T12:12:32;10.30;94.70
42421;DHT22;28063;48.140;11.588;2023-03-26T12:15:01;10.30;94.60
42421;DHT22;28063;48.140;11.588;2023-03-26T12:17:33;10.30;94.40
42421;DHT22;28063;48.140;11.588;2023-03-26T12:20:00;10.60;94.10
42421;DHT22;28063;48.140;11.588;2023-03-26T12:22:34;10.80;93.60
42421;DHT22;28063;48.140;11.588;2023-03-26T12:25:16;11.10;93.00
42421;DHT22;28063;48.140;11.588;2023-03-26T12:30:39;11.60;91.60
42421;DHT22;28063;48.140;11.588;2023-03-26T12:33:14;11.70;91.10
42421;DHT22;28063;48.140;11.588;2023-03-26T12:35:42;11.80;90.70
42421;DHT22;28063;48.140;11.588;2023-03-26T12:38:34;11.80;90.80
42421;DHT22;28063;48.140;11.588;2023-03-26T12:41:10;11.80;90.40
42421;DHT22;28063;48.140;11.588;2023-03-26T12:46:32;11.60;90.40
42421;DHT22;28063;48.140;11.588;2023-03-26T12:49:00;11.50;90.90
42421;DHT22;28063;48.140;11.588;2023-03-26T12:56:58;11.60;90.60
42421;DHT22;28063;48.140;11.588;2023-03-26T13:02:52;11.60;90.40
42421;DHT22;28063;48.140;11.588;2023-03-26T13:11:44;11.60;90.00
42421;DHT22;28063;48.140;11.588;2023-03-26T13:19:36;11.40;89.60
42421;DHT22;28063;48.140;11.588;2023-03-26T13:35:13;11.20;89.70
42421;DHT22;28063;48.140;11.588;2023-03-26T13:44:17;11.20;89.70
42421;DHT22;28063;48.140;11.588;2023-03-26T13:46:51;11.10;90.10
42421;DHT22;28063;48.140;11.588;2023-03-26T13:49:30;11.00;90.30
42421;DHT22;28063;48.140;11.588;2023-03-26T13:52:11;10.90;90.50
42421;DHT22;28063;48.140;11.588;2023-03-26T13:54:48;10.90;91.00
42421;DHT22;28063;48.140;11.588;2023-03-26T13:57:30;10.90;90.70
42421;DHT22;28063;48.140;11.588;2023-03-26T14:02:53;10.90;91.00
42421;DHT22;28063;48.140;11.588;2023-03-26T14:05:32;10.90;91.00
42421;DHT22;28063;48.140;11.588;2023-03-26T14:10:44;11.20;90.60
42421;DHT22;28063;48.140;11.588;2023-03-26T14:16:09;11.40;89.60
42421;DHT22;28063;48.140;11.588;2023-03-26T14:18:53;11.30;88.90
42421;DHT22;28063;48.140;11.588;2023-03-26T14:22:28;11.00;85.40
42421;DHT22;28063;48.140;11.588;2023-03-26T14:35:53;9.10;88.10
42421;DHT22;28063;48.140;11.588;2023-03-26T14:41:23;9.10;88.70
42421;DHT22;28063;48.140;11.588;2023-03-26T14:44:35;9.20;88.90
42421;DHT22;28063;48.140;11.588;2023-03-26T14:47:08;9.20;88.60
42421;DHT22;28063;48.140;11.588;2023-03-26T14:52:23;9.40;88.60
42421;DHT22;28063;48.140;11.588;2023-03-26T14:54:55;9.40;88.20
42421;DHT22;28063;48.140;11.588;2023-03-26T14:57:55;9.50;88.80
42421;DHT22;28063;48.140;11.588;2023-03-26T15:06:32;9.60;87.80
42421;DHT22;28063;48.140;11.588;2023-03-26T15:10:09;9.70;88.20
42421;DHT22;28063;48.140;11.588;2023-03-26T15:18:33;10.00;88.10
42421;DHT22;28063;48.140;11.588;2023-03-26T15:27:23;10.20;88.60
42421;DHT22;28063;48.140;11.588;2023-03-26T15:52:55;10.10;90.50
42421;DHT22;28063;48.140;11.588;2023-03-26T15:55:41;10.10;90.60
42421;DHT22;28063;48.140;11.588;2023-03-26T15:58:20;10.00;90.60
42421;DHT22;28063;48.140;11.588;2023-03-26T16:03:47;9.90;89.30
42421;DHT22;28063;48.140;11.588;2023-03-26T16:06:22;9.80;85.00
42421;DHT22;28063;48.140;11.588;2023-03-26T16:11:49;9.60;81.80
42421;DHT22;28063;48.140;11.588;2023-03-26T16:16:55;9.50;77.90
42421;DHT22;28063;48.140;11.588;2023-03-26T16:22:02;9.40;78.50
42421;DHT22;28063;48.140;11.588;2023-03-26T16:24:33;9.40;79.10
42421;DHT22;28063;48.140;11.588;2023-03-26T16:32:32;9.30;80.70
42421;DHT22;28063;48.140;11.588;2023-03-26T16:35:21;9.30;81.00
42421;DHT22;28063;48.140;11.588;2023-03-26T16:38:10;9.30;81.50
42421;DHT22;28063;48.140;11.588;2023-03-26T16:40:57;9.30;82.00
42421;DHT22;28063;48.140;11.588;2023-03-26T16:43:38;9.20;83.00
42421;DHT22;28063;48.140;11.588;2023-03-26T16:46:22;9.20;82.60
42421;DHT22;28063;48.140;11.588;2023-03-26T16:53:54;9.10;83.70
42421;DHT22;28063;48.140;11.588;2023-03-26T16:56:42;9.10;84.00
42421;DHT22;28063;48.140;11.588;2023-03-26T16:59:43;9.10;84.30
42421;DHT22;28063;48.140;11.588;2023-03-26T17:02:43;9.00;85.00
42421;DHT22;28063;48.140;11.588;2023-03-26T17:05:32;9.00;85.60
42421;DHT22;28063;48.140;11.588;2023-03-26T17:08:13;8.90;86.10
42421;DHT22;28063;48.140;11.588;2023-03-26T17:21:53;8.70;88.00
42421;DHT22;28063;48.140;11.588;2023-03-26T17:27:31;8.70;88.30
42421;DHT22;28063;48.140;11.588;2023-03-26T17:43:51;8.50;88.90
42421;DHT22;28063;48.140;11.588;2023-03-26T17:54:36;8.60;88.70
42421;DHT22;28063;48.140;11.588;2023-03-26T17:57:14;8.70;89.20
42421;DHT22;28063;48.140;11.588;2023-03-26T17:59:42;8.60;89.60
42421;DHT22;28063;48.140;11.588;2023-03-26T18:02:18;8.60;90.10
42421;DHT22;28063;48.140;11.588;2023-03-26T18:04:47;8.50;90.30
42421;DHT22;28063;48.140;11.588;2023-03-26T18:10:42;8.40;90.80
42421;DHT22;28063;48.140;11.588;2023-03-26T18:16:16;8.00;91.40
42421;DHT22;28063;48.140;11.588;2023-03-26T18:19:08;7.90;91.40
42421;DHT22;28063;48.140;11.588;2023-03-26T18:21:42;7.80;91.90
42421;DHT22;28063;48.140;11.588;2023-03-26T18:24:37;7.60;91.50
42421;DHT22;28063;48.140;11.588;2023-03-26T18:29:34;7.50;91.90
42421;DHT22;28063;48.140;11.588;2023-03-26T18:34:37;7.30;92.10
42421;DHT22;28063;48.140;11.588;2023-03-26T18:40:21;7.30;92.20
42421;DHT22;28063;48.140;11.588;2023-03-26T18:42:52;7.20;92.20
42421;DHT22;28063;48.140;11.588;2023-03-26T18:47:55;7.10;92.20
42421;DHT22;28063;48.140;11.588;2023-03-26T18:50:25;7.00;92.30
42421;DHT22;28063;48.140;11.588;2023-03-26T18:52:52;7.00;92.40
42421;DHT22;28063;48.140;11.588;2023-03-26T18:55:20;6.90;92.50
42421;DHT22;28063;48.140;11.588;2023-03-26T18:57:49;6.90;92.70
42421;DHT22;28063;48.140;11.588;2023-03-26T19:00:20;6.90;92.80
42421;DHT22;28063;48.140;11.588;2023-03-26T19:03:01;6.90;92.90
42421;DHT22;28063;48.140;11.588;2023-03-26T19:05:28;6.90;92.80
42421;DHT22;28063;48.140;11.588;2023-03-26T19:07:56;6.80;92.90
42421;DHT22;28063;48.140;11.588;2023-03-26T19:10:22;6.80;93.10
42421;DHT22;28063;48.140;11.588;2023-03-26T19:13:01;6.70;93.20
42421;DHT22;28063;48.140;11.588;2023-03-26T19:15:33;6.60;93.30
42421;DHT22;28063;48.140;11.588;2023-03-26T19:18:02;6.60;93.40
42421;DHT22;28063;48.140;11.588;2023-03-26T19:21:00;6.50;93.60
42421;DHT22;28063;48.140;11.588;2023-03-26T19:23:38;6.50;93.80
42421;DHT22;28063;48.140;11.588;2023-03-26T19:26:08;6.40;93.90
42421;DHT22;28063;48.140;11.588;2023-03-26T19:28:39;6.40;94.10
42421;DHT22;28063;48.140;11.588;2023-03-26T19:33:36;6.40;94.40
42421;DHT22;28063;48.140;11.588;2023-03-26T19:36:22;6.40;94.40
42421;DHT22;28063;48.140;11.588;2023-03-26T19:38:53;6.40;94.50
42421;DHT22;28063;48.140;11.588;2023-03-26T19:43:53;6.40;94.70
42421;DHT22;28063;48.140;11.588;2023-03-26T19:46:24;6.40;94.80
42421;DHT22;28063;48.140;11.588;2023-03-26T19:48:53;6.40;94.90
42421;DHT22;28063;48.140;11.588;2023-03-26T19:51:24;6.40;95.00
42421;DHT22;28063;48.140;11.588;2023-03-26T19:53:58;6.40;95.00
42421;DHT22;28063;48.140;11.588;2023-03-26T19:56:25;6.40;95.00
42421;DHT22;28063;48.140;11.588;2023-03-26T19:58:52;6.40;95.10
42421;DHT22;28063;48.140;11.588;2023-03-26T20:01:27;6.40;95.20
42421;DHT22;28063;48.140;11.588;2023-03-26T20:03:56;6.40;95.20
42421;DHT22;28063;48.140;11.588;2023-03-26T20:06:23;6.40;95.20
42421;DHT22;28063;48.140;11.588;2023-03-26T20:08:53;6.40;95.20
42421;DHT22;28063;48.140;11.588;2023-03-26T20:11:23;6.40;95.20
42421;DHT22;28063;48.140;11.588;2023-03-26T20:13:49;6.50;95.20
42421;DHT22;28063;48.140;11.588;2023-03-26T20:16:25;6.50;95.10
42421;DHT22;28063;48.140;11.588;2023-03-26T20:18:51;6.50;95.10
42421;DHT22;28063;48.140;11.588;2023-03-26T20:21:18;6.40;95.10
42421;DHT22;28063;48.140;11.588;2023-03-26T20:23:43;6.40;95.20
42421;DHT22;28063;48.140;11.588;2023-03-26T20:26:12;6.30;95.10
42421;DHT22;28063;48.140;11.588;2023-03-26T20:28:39;6.30;95.10
42421;DHT22;28063;48.140;11.588;2023-03-26T20:31:05;6.30;95.10
42421;DHT22;28063;48.140;11.588;2023-03-26T20:33:31;6.30;95.10
42421;DHT22;28063;48.140;11.588;2023-03-26T20:35:57;6.30;95.00
42421;DHT22;28063;48.140;11.588;2023-03-26T20:38:24;6.30;94.90
42421;DHT22;28063;48.140;11.588;2023-03-26T20:40:51;6.30;94.80
42421;DHT22;28063;48.140;11.588;2023-03-26T20:43:17;6.30;94.20
42421;DHT22;28063;48.140;11.588;2023-03-26T20:45:46;6.30;94.30
42421;DHT22;28063;48.140;11.588;2023-03-26T20:48:13;6.20;94.40
42421;DHT22;28063;48.140;11.588;2023-03-26T20:50:39;6.20;94.40
42421;DHT22;28063;48.140;11.588;2023-03-26T20:53:09;6.30;94.40
42421;DHT22;28063;48.140;11.588;2023-03-26T20:55:35;6.30;94.30
42421;DHT22;28063;48.140;11.588;2023-03-26T20:58:01;6.30;94.20
42421;DHT22;28063;48.140;11.588;2023-03-26T21:00:28;6.40;93.80
42421;DHT22;28063;48.140;11.588;2023-03-26T21:02:55;6.40;93.60
42421;DHT22;28063;48.140;11.588;2023-03-26T21:05:23;6.40;93.20
42421;DHT22;28063;48.140;11.588;2023-03-26T21:07:55;6.50;93.30
42421;DHT22;28063;48.140;11.588;2023-03-26T21:10:21;6.50;93.10
42421;DHT22;28063;48.140;11.588;2023-03-26T21:15:19;6.50;92.80
42421;DHT22;28063;48.140;11.588;2023-03-26T21:17:46;6.50;92.70
42421;DHT22;28063;48.140;11.588;2023-03-26T21:20:12;6.50;92.70
42421;DHT22;28063;48.140;11.588;2023-03-26T21:22:48;6.60;92.70
42421;DHT22;28063;48.140;11.588;2023-03-26T21:25:28;6.50;92.30
42421;DHT22;28063;48.140;11.588;2023-03-26T21:30:47;6.50;92.40
42421;DHT22;28063;48.140;11.588;2023-03-26T21:33:13;6.50;92.50
42421;DHT22;28063;48.140;11.588;2023-03-26T21:35:39;6.50;92.50
42421;DHT22;28063;48.140;11.588;2023-03-26T21:38:06;6.50;92.30
42421;DHT22;28063;48.140;11.588;2023-03-26T21:40:34;6.50;92.40
42421;DHT22;28063;48.140;11.588;2023-03-26T21:43:00;6.50;92.30
42421;DHT22;28063;48.140;11.588;2023-03-26T21:45:26;6.50;92.30